Time,TemperatureF,DewpointF,PressureIn,WindDirection,WindDirectionDegrees,WindSpeedMPH,WindSpeedGustMPH,Humidity,HourlyPrecipIn,Conditions,Clouds,dailyrainin,SoftwareType,DateUTC
2013-03-30 08:02:00,69.8,69.2,30.12,East,90,19.5,-999.0,98,-99.99,,,0.04,Acu-Link.com,2013-03-30 06:02:00,
2013-03-30 08:17:00,69.8,69.2,30.12,ESE,112,11.9,-999.0,98,-99.99,,,0.05,Acu-Link.com,2013-03-30 06:17:00,
2013-03-30 08:32:00,69.8,69.2,30.12,East,90,22.6,-999.0,98,-99.99,,,0.07,Acu-Link.com,2013-03-30 06:32:00,
2013-03-30 08:47:00,69.8,69.2,30.12,ESE,112,9.8,-999.0,98,-99.99,,,0.08,Acu-Link.com,2013-03-30 06:47:00,
2013-03-30 08:50:00,70.7,70.1,29.25,East,90,15.5,15.5,98,0.00,CLR,,0.00,WeatherDisplay:10.37,2013-03-30 06:50:00,
2013-03-30 08:55:00,70.9,70.3,29.59,East,90,21.9,21.9,98,0.00,CLR,,0.00,WeatherDisplay:10.37,2013-03-30 06:55:00,
2013-03-30 09:00:00,70.7,70.1,29.59,East,90,13.0,13.0,98,0.00,CLR,,0.00,WeatherDisplay:10.37,2013-03-30 07:00:00,
2013-03-30 09:05:00,71.2,70.6,29.59,ESE,112,19.1,19.1,98,0.00,CLR,,0.00,WeatherDisplay:10.37,2013-03-30 07:05:00,
2013-03-30 09:10:00,71.2,70.6,29.59,ESE,112,8.3,8.3,98,0.00,CLR,,0.00,WeatherDisplay:10.37,2013-03-30 07:10:00,
2013-03-30 09:15:00,71.2,70.6,29.59,East,90,19.6,19.6,98,0.00,CLR,,0.00,WeatherDisplay:10.37,2013-03-30 07:15:00,
2013-03-30 09:20:00,71.1,70.5,29.59,ESE,112,17.3,17.3,98,0.00,CLR,,0.00,WeatherDisplay:10.37,2013-03-30 07:20:00,
2013-03-30 09:25:00,71.2,70.6,29.59,ESE,112,19.6,19.6,98,0.00,CLR,,0.00,WeatherDisplay:10.37,2013-03-30 07:25:00,
2013-03-30 09:30:00,71.6,71.0,29.60,ESE,112,14.0,14.0,98,0.00,CLR,,0.00,WeatherDisplay:10.37,2013-03-30 07:30:00,
2013-03-30 09:35:00,72.0,71.4,29.60,East,90,19.6,19.6,98,0.00,CLR,,0.00,WeatherDisplay:10.37,2013-03-30 07:35:00,
2013-03-30 09:40:00,71.4,70.8,29.60,ESE,112,18.4,18.4,98,0.00,CLR,,0.00,WeatherDisplay:10.37,2013-03-30 07:40:00,
2013-03-30 09:45:00,71.6,71.0,29.60,East,90,17.3,17.3,98,0.00,CLR,,0.00,WeatherDisplay:10.37,2013-03-30 07:45:00,
2013-03-30 09:50:00,71.8,71.2,29.60,East,90,16.1,16.1,98,0.00,CLR,,0.00,WeatherDisplay:10.37,2013-03-30 07:50:00,
2013-03-30 09:55:00,71.2,70.6,29.61,East,90,17.3,17.3,98,0.00,CLR,,0.00,WeatherDisplay:10.37,2013-03-30 07:55:00,
2013-03-30 10:00:00,71.8,71.2,29.61,ESE,112,16.1,16.1,98,0.00,CLR,,0.00,WeatherDisplay:10.37,2013-03-30 08:00:00,
2013-03-30 10:05:00,71.8,71.2,29.61,SE,135,12.7,12.7,98,0.00,CLR,,0.00,WeatherDisplay:10.37,2013-03-30 08:05:00,
2013-03-30 10:10:00,71.6,71.0,29.61,ESE,112,15.0,15.0,98,0.00,CLR,,0.00,WeatherDisplay:10.37,2013-03-30 08:10:00,
2013-03-30 10:15:00,71.6,71.0,29.61,ESE,112,16.1,16.1,98,0.00,CLR,,0.00,WeatherDisplay:10.37,2013-03-30 08:15:00,
2013-03-30 10:20:00,71.1,70.5,29.61,East,90,17.3,17.3,98,0.00,CLR,,0.00,WeatherDisplay:10.37,2013-03-30 08:20:00,
2013-03-30 10:25:00,71.2,70.6,29.61,East,90,16.1,16.1,98,0.00,CLR,,0.00,WeatherDisplay:10.37,2013-03-30 08:25:00,
2013-03-30 10:30:00,71.6,71.0,29.61,East,90,18.6,18.6,98,0.00,CLR,,0.00,WeatherDisplay:10.37,2013-03-30 08:30:00,
2013-03-30 10:35:00,71.2,70.6,29.61,East,90,17.3,17.3,98,0.00,CLR,,0.00,WeatherDisplay:10.37,2013-03-30 08:35:00,
2013-03-30 10:40:00,71.2,70.6,29.61,ESE,112,13.8,13.8,98,0.00,CLR,,0.00,WeatherDisplay:10.37,2013-03-30 08:40:00,
2013-03-30 10:45:00,71.8,71.2,29.61,East,90,11.5,11.5,98,0.00,CLR,,0.00,WeatherDisplay:10.37,2013-03-30 08:45:00,
2013-03-30 10:50:00,71.4,70.8,29.61,ENE,68,20.7,20.7,98,0.00,CLR,,0.00,WeatherDisplay:10.37,2013-03-30 08:50:00,
2013-03-30 10:55:00,71.1,70.5,29.60,East,90,19.6,19.6,98,0.00,CLR,,0.00,WeatherDisplay:10.37,2013-03-30 08:55:00,
2013-03-30 11:00:00,71.4,70.8,29.60,SE,135,19.6,19.6,98,0.00,CLR,,0.00,WeatherDisplay:10.37,2013-03-30 09:00:00,
2013-03-30 11:05:00,71.4,70.8,29.60,ESE,112,14.5,14.5,98,0.00,CLR,,0.00,WeatherDisplay:10.37,2013-03-30 09:05:00,
2013-03-30 11:10:00,71.8,71.2,29.60,SSE,158,16.1,16.1,98,0.00,CLR,,0.00,WeatherDisplay:10.37,2013-03-30 09:10:00,
2013-03-30 11:15:00,73.2,72.6,29.60,ESE,112,20.2,20.2,98,0.00,CLR,,0.00,WeatherDisplay:10.37,2013-03-30 09:15:00,
2013-03-30 11:20:00,71.4,70.8,29.60,ESE,112,20.7,20.7,98,0.00,CLR,,0.00,WeatherDisplay:10.37,2013-03-30 09:20:00,
2013-03-30 11:25:00,71.4,70.8,29.60,ESE,112,17.3,17.3,98,0.00,CLR,,0.00,WeatherDisplay:10.37,2013-03-30 09:25:00,
2013-03-30 11:30:00,71.4,70.8,29.60,ESE,112,20.7,20.7,98,0.00,CLR,,0.00,WeatherDisplay:10.37,2013-03-30 09:30:00,
2013-03-30 11:34:00,71.6,71.0,29.60,SE,135,18.4,18.4,98,0.01,RA,,0.01,WeatherDisplay:10.37,2013-03-30 09:34:00,
2013-03-30 11:39:00,71.4,70.8,29.60,East,90,21.9,21.9,98,0.01,RA,,0.01,WeatherDisplay:10.37,2013-03-30 09:39:00,
2013-03-30 11:44:00,71.6,71.0,29.60,SE,135,20.7,20.7,98,0.01,CLR,,0.01,WeatherDisplay:10.37,2013-03-30 09:44:00,
2013-03-30 11:49:00,71.8,71.2,29.60,ESE,112,20.7,20.7,98,0.01,CLR,,0.01,WeatherDisplay:10.37,2013-03-30 09:49:00,
2013-03-30 11:54:00,71.6,71.0,29.60,ESE,112,17.6,17.6,98,0.01,CLR,,0.01,WeatherDisplay:10.37,2013-03-30 09:54:00,
2013-03-30 11:59:00,71.4,70.8,29.60,ESE,112,19.6,19.6,98,0.01,CLR,,0.01,WeatherDisplay:10.37,2013-03-30 09:59:00,
2013-03-30 12:04:00,71.4,70.8,29.60,ESE,112,16.1,16.1,98,0.01,CLR,,0.01,WeatherDisplay:10.37,2013-03-30 10:04:00,
2013-03-30 12:09:00,71.2,70.6,29.60,SSE,158,19.6,19.6,98,0.01,CLR,,0.01,WeatherDisplay:10.37,2013-03-30 10:09:00,
2013-03-30 12:14:00,71.2,70.6,29.60,ESE,112,18.4,18.4,98,0.01,CLR,,0.01,WeatherDisplay:10.37,2013-03-30 10:14:00,
2013-03-30 12:19:00,71.2,70.6,29.60,ESE,112,20.7,20.7,98,0.01,CLR,,0.01,WeatherDisplay:10.37,2013-03-30 10:19:00,
2013-03-30 12:24:00,71.6,71.0,29.60,ENE,68,14.0,14.0,98,0.01,CLR,,0.01,WeatherDisplay:10.37,2013-03-30 10:24:00,
2013-03-30 12:29:00,71.6,71.0,29.60,ESE,112,18.4,18.4,98,0.01,CLR,,0.01,WeatherDisplay:10.37,2013-03-30 10:29:00,
2013-03-30 12:34:00,71.8,71.2,29.60,ESE,112,19.6,19.6,98,0.00,CLR,,0.01,WeatherDisplay:10.37,2013-03-30 10:34:00,
2013-03-30 12:39:00,71.6,71.0,29.60,NNE,22,16.1,16.1,98,0.00,CLR,,0.01,WeatherDisplay:10.37,2013-03-30 10:39:00,
2013-03-30 12:44:00,71.6,71.0,29.60,ESE,112,23.2,23.2,98,0.00,CLR,,0.01,WeatherDisplay:10.37,2013-03-30 10:44:00,
2013-03-30 12:49:00,71.4,70.8,29.60,East,90,20.7,20.7,98,0.00,CLR,,0.01,WeatherDisplay:10.37,2013-03-30 10:49:00,
2013-03-30 12:54:00,71.4,70.8,29.60,East,90,20.7,20.7,98,0.00,CLR,,0.01,WeatherDisplay:10.37,2013-03-30 10:54:00,
2013-03-30 12:59:00,71.2,70.6,29.60,SE,135,19.6,19.6,98,0.00,CLR,,0.01,WeatherDisplay:10.37,2013-03-30 10:59:00,
2013-03-30 13:04:00,71.4,70.8,29.60,ESE,112,20.7,20.7,98,0.00,CLR,,0.01,WeatherDisplay:10.37,2013-03-30 11:04:00,
2013-03-30 13:09:00,71.4,70.8,29.60,ESE,112,16.6,16.6,98,0.00,CLR,,0.01,WeatherDisplay:10.37,2013-03-30 11:09:00,
2013-03-30 13:14:00,71.8,71.2,29.60,ESE,112,18.4,18.4,98,0.00,CLR,,0.01,WeatherDisplay:10.37,2013-03-30 11:14:00,
2013-03-30 13:19:00,71.8,71.2,29.59,ESE,112,19.6,19.6,98,0.00,CLR,,0.01,WeatherDisplay:10.37,2013-03-30 11:19:00,
2013-03-30 13:24:00,72.5,71.9,29.59,ESE,112,15.0,15.0,98,0.00,CLR,,0.01,WeatherDisplay:10.37,2013-03-30 11:24:00,
2013-03-30 13:29:00,71.8,71.2,29.59,ESE,112,19.6,19.6,98,0.00,CLR,,0.01,WeatherDisplay:10.37,2013-03-30 11:29:00,
2013-03-30 13:34:00,71.8,71.2,29.59,East,90,17.3,17.3,98,0.00,CLR,,0.01,WeatherDisplay:10.37,2013-03-30 11:34:00,
2013-03-30 13:39:00,71.8,71.2,29.59,ESE,112,20.7,20.7,98,0.00,CLR,,0.01,WeatherDisplay:10.37,2013-03-30 11:39:00,
2013-03-30 13:44:00,71.8,71.2,29.59,ESE,112,20.7,20.7,98,0.00,CLR,,0.01,WeatherDisplay:10.37,2013-03-30 11:44:00,
2013-03-30 13:49:00,72.5,71.9,29.59,ESE,112,15.5,15.5,98,0.00,CLR,,0.01,WeatherDisplay:10.37,2013-03-30 11:49:00,
2013-03-30 13:54:00,71.6,71.0,29.58,ESE,112,17.3,17.3,98,0.00,CLR,,0.01,WeatherDisplay:10.37,2013-03-30 11:54:00,
2013-03-30 13:59:00,72.0,71.4,29.58,East,90,22.7,22.7,98,0.00,CLR,,0.01,WeatherDisplay:10.37,2013-03-30 11:59:00,
2013-03-30 14:04:00,72.0,71.4,29.57,ESE,112,20.7,20.7,98,0.00,CLR,,0.01,WeatherDisplay:10.37,2013-03-30 12:04:00,
2013-03-30 14:09:00,71.8,71.2,29.57,SSE,158,16.1,16.1,98,0.00,CLR,,0.01,WeatherDisplay:10.37,2013-03-30 12:09:00,
2013-03-30 14:14:00,71.8,71.2,29.57,SSE,158,13.8,13.8,98,0.00,CLR,,0.01,WeatherDisplay:10.37,2013-03-30 12:14:00,
2013-03-30 14:41:00,71.8,71.2,29.57,East,90,17.3,17.3,98,0.00,CLR,,0.01,WeatherDisplay:10.37,2013-03-30 12:41:00,
2013-03-30 14:44:00,71.8,71.2,29.57,East,90,17.3,17.3,98,0.00,CLR,,0.01,WeatherDisplay:10.37,2013-03-30 12:44:00,
2013-03-30 14:46:00,71.8,71.2,29.57,East,90,17.3,17.3,98,0.00,CLR,,0.01,WeatherDisplay:10.37,2013-03-30 12:46:00,
2013-03-30 14:51:00,71.8,71.2,29.57,East,90,17.3,17.3,98,0.00,CLR,,0.01,WeatherDisplay:10.37,2013-03-30 12:51:00,
2013-03-30 14:56:00,71.6,71.0,30.11,ESE,112,11.4,-999.0,98,-99.99,,,0.09,Acu-Link.com,2013-03-30 12:56:00,
2013-03-30 15:11:00,71.6,71.0,30.12,ESE,112,7.8,-999.0,98,-99.99,,,0.09,Acu-Link.com,2013-03-30 13:11:00,
2013-03-30 15:30:00,71.8,71.2,29.57,East,90,17.3,17.3,98,0.00,CLR,,0.01,WeatherDisplay:10.37,2013-03-30 13:30:00,
2013-03-30 15:40:00,71.8,71.2,29.57,East,90,17.3,17.3,98,0.00,CLR,,0.01,WeatherDisplay:10.37,2013-03-30 13:40:00,
2013-03-30 15:45:00,71.8,71.2,29.57,East,90,17.3,17.3,98,0.00,CLR,,0.01,WeatherDisplay:10.37,2013-03-30 13:45:00,
2013-03-30 15:50:00,71.8,71.2,29.57,East,90,17.3,17.3,98,0.00,CLR,,0.01,WeatherDisplay:10.37,2013-03-30 13:50:00,
2013-03-30 15:55:00,71.8,71.2,29.57,East,90,17.3,17.3,98,0.00,CLR,,0.01,WeatherDisplay:10.37,2013-03-30 13:55:00,
2013-03-30 16:00:00,71.8,71.2,29.57,East,90,17.3,17.3,98,0.00,CLR,,0.01,WeatherDisplay:10.37,2013-03-30 14:00:00,
2013-03-30 16:12:00,69.8,69.2,30.12,ESE,112,11.9,-999.0,98,-99.99,,,0.09,Acu-Link.com,2013-03-30 14:12:00,
2013-03-30 16:27:00,71.6,71.0,30.12,ESE,112,13.9,-999.0,98,-99.99,,,0.09,Acu-Link.com,2013-03-30 14:27:00,
2013-03-30 16:40:00,71.8,71.2,29.57,East,90,17.3,17.3,98,0.00,CLR,,0.01,WeatherDisplay:10.37,2013-03-30 14:40:00,
2013-03-30 16:57:00,71.6,71.0,30.13,ESE,112,11.9,-999.0,98,-99.99,,,0.09,Acu-Link.com,2013-03-30 14:57:00,
2013-03-30 17:12:00,69.8,69.2,30.13,ESE,112,13.9,-999.0,98,-99.99,,,0.09,Acu-Link.com,2013-03-30 15:12:00,
2013-03-30 17:27:00,69.8,69.2,30.13,ESE,112,11.9,-999.0,98,-99.99,,,0.09,Acu-Link.com,2013-03-30 15:27:00,
2013-03-30 17:42:00,69.8,69.2,30.13,East,90,26.2,-999.0,98,-99.99,,,0.09,Acu-Link.com,2013-03-30 15:42:00,
2013-03-30 17:56:00,71.8,71.2,29.57,East,90,17.3,17.3,98,0.00,CLR,,0.01,WeatherDisplay:10.37,2013-03-30 15:56:00,
2013-03-30 18:13:00,69.8,69.2,30.13,East,90,20.1,-999.0,98,-99.99,,,0.09,Acu-Link.com,2013-03-30 16:13:00,
2013-03-30 18:28:00,69.8,69.2,30.12,ESE,112,16.6,-999.0,98,-99.99,,,0.09,Acu-Link.com,2013-03-30 16:28:00,
2013-03-30 18:43:00,71.6,71.0,30.13,SE,135,17.4,-999.0,98,-99.99,,,0.11,Acu-Link.com,2013-03-30 16:43:00,
2013-03-30 20:06:00,71.8,71.2,29.57,East,90,17.3,17.3,98,0.00,CLR,,0.01,WeatherDisplay:10.37,2013-03-30 18:06:00,
2013-03-30 21:31:00,71.8,71.2,29.57,East,90,17.3,17.3,98,0.00,CLR,,0.01,WeatherDisplay:10.37,2013-03-30 19:31:00,